Time;durP1;ratioP1;P1;durP2;ratioP2;P2;SDS_P1;SDS_P2;PMS_P1;PMS_P2;Temp;Humidity;BMP_temperature;BMP_pressure;BME280_temperature;BME280_humidity;BME280_pressure;Samples;Min_cycle;Max_cycle;Signal;HPM_P1;HPM_P2
2024/02/01 00:01:08;;;;;;;5.50;4.30;;;16.40;51.60;;;;;;5011751;28;20459;-78
2024/02/01 00:03:36;;;;;;;4.50;4.10;;;16.40;51.60;;;;;;5021501;28;20501;-78
2024/02/01 00:06:04;;;;;;;7.40;4.23;;;16.30;51.60;;;;;;5014249;28;20473;-78
2024/02/01 00:08:32;;;;;;;4.47;4.00;;;16.40;51.60;;;;;;5015962;28;20472;-78
2024/02/01 00:11:00;;;;;;;4.17;3.80;;;16.40;51.70;;;;;;5015985;28;20478;-77
2024/02/01 00:13:29;;;;;;;5.37;4.43;;;16.30;51.80;;;;;;5014241;28;20487;-77
2024/02/01 00:15:58;;;;;;;4.40;4.00;;;16.30;51.70;;;;;;5008775;28;20536;-76
2024/02/01 00:18:26;;;;;;;4.33;3.93;;;16.40;52.00;;;;;;5017793;28;20523;-77
2024/02/01 00:20:54;;;;;;;4.10;3.80;;;16.40;51.70;;;;;;5020620;28;20498;-77
2024/02/01 00:23:22;;;;;;;6.40;3.90;;;16.40;51.80;;;;;;5016237;28;20469;-77
2024/02/01 00:25:50;;;;;;;5.17;4.10;;;16.30;52.00;;;;;;5018832;28;20510;-77
2024/02/01 00:28:18;;;;;;;6.37;3.90;;;16.40;52.00;;;;;;5018896;28;20468;-77
2024/02/01 00:30:46;;;;;;;4.90;3.93;;;16.40;52.00;;;;;;5019435;28;20472;-78
2024/02/01 00:33:16;;;;;;;4.83;3.97;;;16.30;52.00;;;;;;5009756;28;20480;-75
2024/02/01 00:35:45;;;;;;;4.60;4.13;;;16.30;52.10;;;;;;5014736;28;20447;-77
2024/02/01 00:38:13;;;;;;;6.60;3.87;;;16.30;52.00;;;;;;5021869;28;20619;-77
2024/02/01 00:40:40;;;;;;;3.97;3.57;;;16.30;52.00;;;;;;5015017;28;20501;-77
2024/02/01 00:43:08;;;;;;;4.93;3.80;;;16.30;52.00;;;;;;5015758;28;20496;-78
2024/02/01 00:45:36;;;;;;;5.70;3.90;;;16.30;52.10;;;;;;5015720;28;20987;-78
2024/02/01 00:48:05;;;;;;;5.83;3.70;;;16.30;52.10;;;;;;5019008;28;20971;-77
2024/02/01 00:50:34;;;;;;;3.67;3.37;;;16.30;52.30;;;;;;5012652;28;20983;-76
2024/02/01 00:53:03;;;;;;;6.70;3.90;;;16.30;52.30;;;;;;5014367;28;20465;-78
2024/02/01 00:55:31;;;;;;;6.53;3.90;;;16.30;52.30;;;;;;5013785;28;20481;-78
2024/02/01 00:57:59;;;;;;;6.40;3.70;;;16.30;52.40;;;;;;5015116;28;20525;-78
2024/02/01 01:00:27;;;;;;;5.07;3.70;;;16.30;52.40;;;;;;5013548;28;20439;-78
2024/02/01 01:02:55;;;;;;;5.40;4.23;;;16.30;52.90;;;;;;5015459;28;20593;-78
2024/02/01 01:05:23;;;;;;;6.63;3.70;;;16.30;52.40;;;;;;5012974;28;20522;-77
2024/02/01 01:07:52;;;;;;;9.37;3.97;;;16.30;52.40;;;;;;5014282;28;20445;-77
2024/02/01 01:10:21;;;;;;;4.30;3.90;;;16.30;52.40;;;;;;5009544;28;20476;-78
2024/02/01 01:12:49;;;;;;;6.37;4.70;;;16.30;52.20;;;;;;5015724;28;20492;-78
2024/02/01 01:15:17;;;;;;;4.27;3.87;;;16.30;52.50;;;;;;5011411;28;20472;-78
2024/02/01 01:17:45;;;;;;;3.77;3.47;;;16.30;52.40;;;;;;5012431;28;20452;-78
2024/02/01 01:20:14;;;;;;;4.13;3.77;;;16.30;52.70;;;;;;5017483;28;20490;-77
2024/02/01 01:22:45;;;;;;;3.53;3.23;;;16.30;52.40;;;;;;5012759;28;20468;-78
2024/02/01 01:25:14;;;;;;;3.67;3.40;;;16.30;52.50;;;;;;5011219;28;20527;-77
2024/02/01 01:27:42;;;;;;;3.80;3.60;;;16.30;52.60;;;;;;5013133;28;20485;-78
2024/02/01 01:30:12;;;;;;;4.77;3.90;;;16.30;52.60;;;;;;5012631;28;20991;-77
2024/02/01 01:32:40;;;;;;;4.23;3.77;;;16.40;52.80;;;;;;5013319;28;20893;-77
2024/02/01 01:35:08;;;;;;;3.70;3.40;;;16.40;52.50;;;;;;5012922;28;20444;-77
2024/02/01 01:37:36;;;;;;;3.33;3.10;;;16.40;52.70;;;;;;5011565;28;20468;-77
2024/02/01 01:40:06;;;;;;;3.73;3.43;;;16.40;52.60;;;;;;5011653;28;20443;-77
2024/02/01 01:42:35;;;;;;;3.63;3.33;;;16.40;52.50;;;;;;5011504;28;20467;-78
2024/02/01 01:45:04;;;;;;;3.37;3.10;;;16.40;52.60;;;;;;5013303;28;20539;-77
2024/02/01 01:47:32;;;;;;;4.43;3.50;;;16.40;52.70;;;;;;5013848;28;20436;-77
2024/02/01 01:50:00;;;;;;;4.80;3.50;;;16.40;52.70;;;;;;5013184;28;20484;-77
2024/02/01 01:52:27;;;;;;;3.33;3.03;;;16.40;52.90;;;;;;5016018;28;20474;-77
2024/02/01 01:54:58;;;;;;;6.00;3.60;;;16.40;52.80;;;;;;5014860;28;20523;-77
2024/02/01 01:57:26;;;;;;;3.53;3.23;;;16.40;52.60;;;;;;5007252;28;20480;-78
2024/02/01 01:59:55;;;;;;;3.57;3.27;;;16.40;52.80;;;;;;5015316;28;20523;-77
2024/02/01 02:02:23;;;;;;;3.77;3.47;;;16.40;52.90;;;;;;5014800;28;20456;-77
2024/02/01 02:04:51;;;;;;;3.97;3.57;;;16.40;52.90;;;;;;5014300;28;20939;-78
2024/02/01 02:07:19;;;;;;;3.10;2.80;;;16.40;53.10;;;;;;5011391;28;20555;-78
2024/02/01 02:09:47;;;;;;;3.73;2.70;;;16.40;52.90;;;;;;5023512;28;20480;-77
2024/02/01 02:12:15;;;;;;;3.97;3.40;;;16.50;52.80;;;;;;5023554;28;20496;-78
2024/02/01 02:14:43;;;;;;;3.60;3.30;;;16.40;52.90;;;;;;5022705;28;20437;-77
2024/02/01 02:17:12;;;;;;;3.43;3.23;;;16.40;52.90;;;;;;5019924;28;20462;-78
2024/02/01 02:19:41;;;;;;;3.10;2.80;;;16.40;53.10;;;;;;5015421;28;20516;-78
2024/02/01 02:22:12;;;;;;;3.30;3.10;;;16.40;53.00;;;;;;5014766;28;20495;-77
2024/02/01 02:24:40;;;;;;;3.87;3.50;;;16.40;52.80;;;;;;5013385;28;20948;-78
2024/02/01 02:27:08;;;;;;;4.00;3.30;;;16.50;53.30;;;;;;5014324;28;20460;-77
2024/02/01 02:29:36;;;;;;;4.97;3.67;;;16.50;53.20;;;;;;5012992;28;20433;-77
2024/02/01 02:32:05;;;;;;;3.67;2.80;;;16.50;53.00;;;;;;5012387;28;20483;-77
2024/02/01 02:34:33;;;;;;;3.30;3.10;;;16.50;53.10;;;;;;5012399;28;20468;-78
2024/02/01 02:37:01;;;;;;;3.33;3.00;;;16.50;53.30;;;;;;5012964;28;20530;-78
2024/02/01 02:39:30;;;;;;;2.93;2.73;;;16.50;53.20;;;;;;5004050;28;20507;-77
2024/02/01 02:41:58;;;;;;;4.10;3.40;;;16.50;53.20;;;;;;5014797;28;20558;-78
2024/02/01 02:44:26;;;;;;;4.03;2.90;;;16.50;53.20;;;;;;5010826;28;20443;-77
2024/02/01 02:46:54;;;;;;;3.00;2.80;;;16.50;53.30;;;;;;5012497;28;20523;-77
2024/02/01 02:49:21;;;;;;;3.27;3.07;;;16.50;53.30;;;;;;5013540;28;20487;-78
2024/02/01 02:51:50;;;;;;;3.20;2.97;;;16.60;53.40;;;;;;5012765;28;20480;-78
2024/02/01 02:54:18;;;;;;;3.30;3.00;;;16.60;53.40;;;;;;5011173;28;20483;-78
2024/02/01 02:56:47;;;;;;;2.67;2.57;;;16.50;53.40;;;;;;5012020;28;20448;-78
2024/02/01 02:59:15;;;;;;;3.33;3.10;;;16.60;53.50;;;;;;5015038;28;20448;-77
2024/02/01 03:01:43;;;;;;;3.30;3.00;;;16.60;53.30;;;;;;5011347;28;20507;-78
2024/02/01 03:04:11;;;;;;;2.63;2.40;;;16.60;53.70;;;;;;5011607;28;20482;-78
2024/02/01 03:06:38;;;;;;;3.50;3.20;;;16.60;53.50;;;;;;5006441;28;20456;-79
2024/02/01 03:09:09;;;;;;;3.67;2.77;;;16.60;53.50;;;;;;5011782;28;20567;-78
2024/02/01 03:11:37;;;;;;;4.13;2.40;;;16.60;53.70;;;;;;5010892;28;20479;-78
2024/02/01 03:14:11;;;;;;;4.70;2.87;;;16.60;53.60;;;;;;5013178;28;20471;-78
2024/02/01 03:16:39;;;;;;;4.27;3.07;;;16.60;53.70;;;;;;5010824;28;20506;-78
2024/02/01 03:19:10;;;;;;;3.17;2.87;;;16.60;53.60;;;;;;5010745;28;20527;-79
2024/02/01 03:21:39;;;;;;;4.10;2.97;;;16.60;53.80;;;;;;5010339;28;20431;-78
2024/02/01 03:24:08;;;;;;;3.77;2.77;;;16.60;53.80;;;;;;5014714;28;20456;-79
2024/02/01 03:26:37;;;;;;;2.77;2.60;;;16.60;53.80;;;;;;5016643;28;20534;-79
2024/02/01 03:29:07;;;;;;;4.43;2.87;;;16.60;53.80;;;;;;5014066;28;20518;-78
2024/02/01 03:31:34;;;;;;;5.77;3.20;;;16.60;53.70;;;;;;5006397;28;20471;-78
2024/02/01 03:34:05;;;;;;;3.60;2.63;;;16.60;53.90;;;;;;5013164;28;20471;-78
2024/02/01 03:36:37;;;;;;;3.57;2.80;;;16.60;53.70;;;;;;5018374;28;20436;-78
2024/02/01 03:39:22;;;;;;;3.27;3.00;;;16.50;53.80;;;;;;5014473;28;20567;-79
2024/02/01 03:41:50;;;;;;;3.30;3.00;;;16.50;54.00;;;;;;5008909;28;20523;-78
2024/02/01 03:44:20;;;;;;;3.70;2.70;;;16.50;54.00;;;;;;5016607;28;20448;-79
2024/02/01 03:46:48;;;;;;;3.00;2.80;;;16.50;54.00;;;;;;5017427;28;20463;-79
2024/02/01 03:49:16;;;;;;;4.20;2.60;;;16.50;54.00;;;;;;5018564;28;20475;-78
2024/02/01 03:51:44;;;;;;;3.00;2.80;;;16.50;54.20;;;;;;5016355;28;20472;-78
2024/02/01 03:54:12;;;;;;;4.10;2.90;;;16.50;54.40;;;;;;5013543;28;20527;-78
2024/02/01 03:56:40;;;;;;;3.07;2.70;;;16.50;54.20;;;;;;5014323;28;20441;-78
2024/02/01 03:59:09;;;;;;;4.37;2.80;;;16.50;54.30;;;;;;5014210;28;20441;-79
2024/02/01 04:01:40;;;;;;;4.00;2.63;;;16.50;54.30;;;;;;5012577;28;20459;-78
2024/02/01 04:04:17;;;;;;;4.37;2.83;;;16.50;54.40;;;;;;5013522;28;20468;-79
2024/02/01 04:06:46;;;;;;;3.20;2.90;;;16.40;54.40;;;;;;5006939;28;20487;-78
2024/02/01 04:09:14;;;;;;;2.90;2.70;;;16.40;54.40;;;;;;5013015;28;20444;-78
2024/02/01 04:11:43;;;;;;;6.70;3.23;;;16.40;54.30;;;;;;5013237;28;20472;-79
2024/02/01 04:14:11;;;;;;;4.23;2.70;;;16.40;54.50;;;;;;5013747;28;20543;-78
2024/02/01 04:16:40;;;;;;;4.70;3.27;;;16.40;54.60;;;;;;5007919;28;20968;-78
2024/02/01 04:19:08;;;;;;;3.10;2.80;;;16.40;54.60;;;;;;5013871;28;20456;-78
2024/02/01 04:21:37;;;;;;;4.93;2.80;;;16.40;54.40;;;;;;5001796;28;20464;-79
2024/02/01 04:24:06;;;;;;;3.47;3.13;;;16.30;54.40;;;;;;5014582;28;20488;-79
2024/02/01 04:26:35;;;;;;;3.27;2.97;;;16.30;54.60;;;;;;5022446;28;20458;-78
2024/02/01 04:29:04;;;;;;;7.90;2.80;;;16.30;54.80;;;;;;5021680;28;20451;-78
2024/02/01 04:31:32;;;;;;;3.10;2.80;;;16.30;54.80;;;;;;5021675;28;20885;-78
2024/02/01 04:34:02;;;;;;;3.90;3.07;;;16.30;54.80;;;;;;5019078;28;20483;-79
2024/02/01 04:36:30;;;;;;;3.97;2.97;;;16.40;54.80;;;;;;5019556;28;20471;-79
2024/02/01 04:38:58;;;;;;;4.10;3.00;;;16.30;54.70;;;;;;5019024;28;20448;-78
2024/02/01 04:41:26;;;;;;;3.50;3.20;;;16.20;54.70;;;;;;5012199;28;20453;-79
2024/02/01 04:43:55;;;;;;;3.77;2.80;;;16.20;54.80;;;;;;5019915;28;20491;-79
2024/02/01 04:46:24;;;;;;;5.43;3.30;;;16.20;54.70;;;;;;5019562;28;20448;-78
2024/02/01 04:48:52;;;;;;;3.17;2.87;;;16.20;54.80;;;;;;5018110;28;20460;-78
2024/02/01 04:51:24;;;;;;;5.70;3.60;;;16.20;54.90;;;;;;5011521;28;20978;-79
2024/02/01 04:53:54;;;;;;;4.07;2.87;;;16.20;54.80;;;;;;5016807;28;20468;-78
2024/02/01 04:56:23;;;;;;;4.40;3.20;;;16.20;54.90;;;;;;5016823;28;20479;-78
2024/02/01 04:58:51;;;;;;;5.80;3.10;;;16.10;55.00;;;;;;5016354;28;20479;-78
2024/02/01 05:01:21;;;;;;;6.13;3.20;;;16.10;55.00;;;;;;5017322;28;20440;-78
2024/02/01 05:03:50;;;;;;;4.20;3.30;;;16.10;55.00;;;;;;5017580;28;21002;-78
2024/02/01 05:06:23;;;;;;;3.30;2.93;;;16.10;55.00;;;;;;5016888;28;20455;-78
2024/02/01 05:08:51;;;;;;;3.97;2.97;;;16.10;54.90;;;;;;5016931;28;20413;-78
2024/02/01 05:11:19;;;;;;;5.23;3.40;;;16.10;55.10;;;;;;5021404;28;20515;-79
2024/02/01 05:13:50;;;;;;;4.00;2.97;;;16.10;55.20;;;;;;5025443;28;20445;-79
2024/02/01 05:16:18;;;;;;;3.70;3.40;;;16.10;54.90;;;;;;5026836;28;20467;-78
2024/02/01 05:18:46;;;;;;;4.80;2.73;;;16.10;55.00;;;;;;5027522;28;20453;-78
2024/02/01 05:21:14;;;;;;;4.50;3.17;;;16.00;55.10;;;;;;5027397;28;20467;-78
2024/02/01 05:23:48;;;;;;;8.13;3.30;;;16.00;55.20;;;;;;5026091;28;20487;-78
2024/02/01 05:26:17;;;;;;;3.50;2.87;;;16.00;55.20;;;;;;5026749;28;20475;-78
2024/02/01 05:28:48;;;;;;;9.17;3.77;;;16.00;55.10;;;;;;5027468;28;20440;-78
2024/02/01 05:31:16;;;;;;;7.40;3.17;;;16.00;55.20;;;;;;5026514;28;20468;-78
2024/02/01 05:33:44;;;;;;;4.30;2.90;;;16.00;55.40;;;;;;5025692;28;20504;-78
2024/02/01 05:36:12;;;;;;;4.30;3.00;;;15.90;55.20;;;;;;5020884;28;20470;-78
2024/02/01 05:38:41;;;;;;;7.03;3.07;;;15.90;55.10;;;;;;5027179;28;20456;-78
2024/02/01 05:41:11;;;;;;;4.33;3.00;;;15.90;55.10;;;;;;5027545;28;20445;-79
2024/02/01 05:43:40;;;;;;;4.60;2.90;;;15.90;55.40;;;;;;5027084;28;20445;-78
2024/02/01 05:46:09;;;;;;;6.87;3.03;;;15.90;55.10;;;;;;5026945;28;20445;-78
2024/02/01 05:48:37;;;;;;;5.33;4.00;;;15.80;55.40;;;;;;5027093;28;20433;-78
2024/02/01 05:51:06;;;;;;;6.67;3.43;;;15.90;55.30;;;;;;5026384;28;20441;-78
2024/02/01 05:53:33;;;;;;;6.50;3.53;;;15.80;55.20;;;;;;5025421;28;20499;-78
2024/02/01 05:56:02;;;;;;;9.40;4.50;;;15.80;55.50;;;;;;5020505;28;20453;-78
2024/02/01 05:58:31;;;;;;;6.73;3.47;;;15.80;55.20;;;;;;5022820;28;20443;-78
2024/02/01 06:00:59;;;;;;;6.50;3.50;;;15.80;55.40;;;;;;5023354;28;20458;-78
2024/02/01 06:03:27;;;;;;;5.53;3.53;;;15.80;55.30;;;;;;5019046;28;20456;-78
2024/02/01 06:05:55;;;;;;;6.23;3.17;;;15.70;55.20;;;;;;5018607;28;20444;-79
2024/02/01 06:08:24;;;;;;;5.40;3.30;;;15.80;55.40;;;;;;5019905;28;20452;-78
2024/02/01 06:10:52;;;;;;;6.73;3.83;;;15.80;55.50;;;;;;5023151;28;20445;-79
2024/02/01 06:13:20;;;;;;;6.17;3.33;;;15.80;55.30;;;;;;5023526;28;20472;-78
2024/02/01 06:15:53;;;;;;;6.83;3.50;;;15.70;55.40;;;;;;5014728;28;20445;-78
2024/02/01 06:18:21;;;;;;;6.97;3.63;;;15.70;55.30;;;;;;5024410;28;20436;-78
2024/02/01 06:20:49;;;;;;;6.63;3.50;;;15.70;55.40;;;;;;5022928;28;20444;-78
2024/02/01 06:23:18;;;;;;;9.13;3.10;;;15.70;55.40;;;;;;5022992;28;20522;-78
2024/02/01 06:25:46;;;;;;;8.17;4.13;;;15.70;55.50;;;;;;5021007;28;20452;-78
2024/02/01 06:28:14;;;;;;;8.53;3.70;;;15.70;55.30;;;;;;5022350;28;20520;-78
2024/02/01 06:30:42;;;;;;;7.57;3.63;;;15.70;55.30;;;;;;5020891;28;20474;-78
2024/02/01 06:33:12;;;;;;;7.30;3.27;;;15.60;55.40;;;;;;5024502;28;20472;-78
2024/02/01 06:35:42;;;;;;;6.90;3.83;;;15.60;55.30;;;;;;5024238;28;20444;-78
2024/02/01 06:38:22;;;;;;;6.53;3.50;;;15.60;55.20;;;;;;5025055;28;20652;-79
2024/02/01 06:41:07;;;;;;;6.10;3.40;;;15.60;55.60;;;;;;5021895;28;20437;-78
2024/02/01 06:44:01;;;;;;;9.97;3.90;;;15.60;55.50;;;;;;5038073;28;20493;-79
2024/02/01 06:46:49;;;;;;;8.60;3.47;;;15.60;55.40;;;;;;5025633;28;20441;-78
2024/02/01 06:49:28;;;;;;;3.23;2.80;;;15.60;55.50;;;;;;5024742;28;20440;-79
2024/02/01 06:52:13;;;;;;;7.90;3.57;;;15.60;55.40;;;;;;5022765;28;20432;-78
2024/02/01 06:54:50;;;;;;;9.03;3.70;;;15.50;55.20;;;;;;5022291;28;20468;-78
2024/02/01 06:57:18;;;;;;;12.33;3.70;;;15.60;55.50;;;;;;5021560;28;20530;-79
2024/02/01 07:02:35;;;;;;;8.17;4.00;;;15.50;55.30;;;;;;5028497;28;20464;-79
2024/02/01 07:05:11;;;;;;;7.33;3.93;;;15.50;55.40;;;;;;5030087;28;20461;-78
2024/02/01 07:07:43;;;;;;;8.00;3.80;;;15.50;55.60;;;;;;5030604;28;20436;-79
2024/02/01 07:10:16;;;;;;;6.53;3.67;;;15.50;55.50;;;;;;5029855;28;20523;-79
2024/02/01 07:12:53;;;;;;;7.17;3.73;;;15.50;55.40;;;;;;5028985;28;20456;-79
2024/02/01 07:15:30;;;;;;;7.40;3.63;;;15.50;55.50;;;;;;5041366;28;20462;-78
2024/02/01 07:18:03;;;;;;;9.73;3.77;;;15.50;55.30;;;;;;5010025;28;20437;-78
2024/02/01 07:20:46;;;;;;;7.50;3.50;;;15.40;55.20;;;;;;5009761;28;20465;-79
2024/02/01 07:26:16;;;;;;;7.13;3.87;;;15.40;55.40;;;;;;5006952;28;20444;-79
2024/02/01 07:59:26;;;;;;;8.50;3.63;;;15.40;55.50;;;;;;5073271;28;20524;-76
2024/02/01 08:02:13;;;;;;;13.07;4.30;;;15.40;55.70;;;;;;5071586;28;20457;-76
2024/02/01 08:07:48;;;;;;;8.10;3.40;;;15.40;55.40;;;;;;5072620;28;20480;-76
2024/02/01 08:10:19;;;;;;;7.33;3.47;;;15.50;55.70;;;;;;5072564;28;20540;-76
2024/02/01 08:12:48;;;;;;;7.80;3.70;;;15.50;55.60;;;;;;5068672;28;20449;-77
2024/02/01 08:15:19;;;;;;;7.10;3.80;;;15.60;55.60;;;;;;5066448;28;20561;-76
2024/02/01 08:17:47;;;;;;;7.30;3.57;;;15.60;55.60;;;;;;5070376;28;20446;-77
2024/02/01 08:20:15;;;;;;;6.90;3.80;;;15.60;55.60;;;;;;5070062;28;20433;-76
2024/02/01 08:22:44;;;;;;;6.73;3.50;;;15.60;55.60;;;;;;5071006;28;20433;-77
2024/02/01 08:25:13;;;;;;;9.57;3.77;;;15.60;55.60;;;;;;5064738;28;20447;-75
2024/02/01 08:27:49;;;;;;;10.50;3.33;;;15.70;55.60;;;;;;5068269;28;20462;-76
2024/02/01 08:30:19;;;;;;;9.27;3.90;;;15.70;55.40;;;;;;5067289;28;20418;-75
2024/02/01 08:32:48;;;;;;;7.53;3.33;;;15.80;55.30;;;;;;5066460;28;20422;-78
2024/02/01 08:35:16;;;;;;;7.73;4.03;;;15.80;55.70;;;;;;5067892;28;20482;-76
2024/02/01 08:37:44;;;;;;;7.37;3.63;;;15.90;55.60;;;;;;5067857;28;20430;-76
2024/02/01 08:40:17;;;;;;;9.87;4.30;;;15.90;55.60;;;;;;5070202;28;20464;-76
2024/02/01 08:42:46;;;;;;;8.63;4.00;;;16.00;55.70;;;;;;5068070;28;20423;-77
2024/02/01 08:45:14;;;;;;;11.43;3.97;;;16.10;55.70;;;;;;5067056;28;20446;-77
2024/02/01 08:47:42;;;;;;;8.70;3.53;;;16.10;55.70;;;;;;5071457;28;20438;-77
2024/02/01 08:50:10;;;;;;;18.87;4.53;;;16.20;55.60;;;;;;5060776;28;20442;-76
2024/02/01 08:52:44;;;;;;;10.50;4.20;;;16.30;55.60;;;;;;5060179;28;20433;-76
2024/02/01 08:55:13;;;;;;;13.13;4.80;;;16.30;55.40;;;;;;5059759;28;20469;-76
2024/02/01 08:57:41;;;;;;;13.00;4.23;;;16.40;55.50;;;;;;5062712;28;20438;-75
2024/02/01 09:00:25;;;;;;;9.70;4.30;;;16.50;55.40;;;;;;5062782;28;20536;-76
2024/02/01 09:03:04;;;;;;;10.87;4.23;;;16.60;55.30;;;;;;5072120;28;20429;-75
2024/02/01 09:05:33;;;;;;;8.10;3.70;;;16.70;55.30;;;;;;5062682;28;20571;-77
2024/02/01 09:08:02;;;;;;;13.70;4.60;;;16.80;55.30;;;;;;5060660;28;20993;-77
2024/02/01 09:10:30;;;;;;;12.13;4.10;;;16.90;55.30;;;;;;5064900;28;20446;-77
2024/02/01 09:12:58;;;;;;;14.30;4.63;;;17.10;55.60;;;;;;5060148;28;20555;-77
2024/02/01 09:15:32;;;;;;;13.57;4.90;;;17.20;55.50;;;;;;5058183;28;20492;-77
2024/02/01 09:18:01;;;;;;;16.13;4.57;;;17.30;55.60;;;;;;5061097;28;20472;-77
2024/02/01 09:20:29;;;;;;;12.17;4.67;;;17.50;55.70;;;;;;5062640;28;20432;-77
2024/02/01 09:22:57;;;;;;;21.53;5.00;;;17.70;55.70;;;;;;5071478;28;20517;-79
2024/02/01 09:25:25;;;;;;;26.70;5.27;;;15.50;53.20;;;;;;5065869;28;20956;-78
2024/02/01 09:27:54;;;;;;;27.30;6.50;;;13.60;56.00;;;;;;5065007;28;20518;-77
2024/02/01 09:30:26;;;;;;;29.27;5.40;;;12.60;57.00;;;;;;5058254;28;20467;-77
2024/02/01 09:32:55;;;;;;;23.23;4.73;;;12.00;57.90;;;;;;5061629;28;20430;-78
2024/02/01 09:35:27;;;;;;;28.33;5.40;;;11.60;61.00;;;;;;5064144;28;20467;-79
2024/02/01 09:37:55;;;;;;;27.07;5.33;;;11.80;61.00;;;;;;5064080;28;20426;-77
2024/02/01 09:40:23;;;;;;;35.07;5.30;;;12.90;66.40;;;;;;5060853;28;20434;-76
2024/02/01 09:42:52;;;;;;;25.00;4.77;;;14.20;63.30;;;;;;5062767;28;20503;-77
2024/02/01 09:45:20;;;;;;;26.87;4.97;;;15.30;59.90;;;;;;5061809;28;20426;-76
2024/02/01 09:47:49;;;;;;;24.47;5.17;;;16.00;57.70;;;;;;5062711;28;20532;-76
2024/02/01 09:50:20;;;;;;;37.00;6.20;;;16.70;56.30;;;;;;5061306;28;20533;-77
2024/02/01 09:52:49;;;;;;;16.60;4.33;;;17.20;55.20;;;;;;5060453;28;20526;-77
2024/02/01 09:55:18;;;;;;;23.97;4.50;;;17.70;54.40;;;;;;5061516;28;20532;-76
2024/02/01 09:57:47;;;;;;;28.80;4.10;;;18.10;53.80;;;;;;5063087;28;20469;-76
2024/02/01 10:00:18;;;;;;;15.27;4.60;;;18.40;53.20;;;;;;5061279;28;20488;-77
2024/02/01 10:02:47;;;;;;;24.10;4.80;;;18.70;52.90;;;;;;5059567;28;20534;-77
2024/02/01 10:05:16;;;;;;;14.47;4.57;;;19.00;52.70;;;;;;5061977;28;20435;-76
2024/02/01 10:07:48;;;;;;;18.43;5.17;;;19.30;52.50;;;;;;5065365;28;20540;-76
2024/02/01 10:10:16;;;;;;;21.93;5.17;;;19.50;52.20;;;;;;5062703;28;20484;-76
2024/02/01 10:12:44;;;;;;;16.20;4.47;;;19.70;52.00;;;;;;5069420;28;20433;-76
2024/02/01 10:15:12;;;;;;;18.43;4.80;;;19.90;52.00;;;;;;5066204;28;20552;-77
2024/02/01 10:17:49;;;;;;;16.30;3.93;;;20.10;51.90;;;;;;5068404;28;20529;-77
2024/02/01 10:20:33;;;;;;;14.37;3.90;;;20.30;51.90;;;;;;5067756;28;20445;-77
2024/02/01 10:23:04;;;;;;;18.33;4.63;;;20.50;51.80;;;;;;5068251;28;20460;-77
2024/02/01 10:25:38;;;;;;;17.50;5.10;;;20.70;51.60;;;;;;5067959;28;20486;-77
2024/02/01 10:28:08;;;;;;;18.43;4.17;;;20.80;51.40;;;;;;5068680;28;20437;-77
2024/02/01 10:30:39;;;;;;;17.13;4.87;;;21.00;51.40;;;;;;5067420;28;20413;-78
2024/02/01 10:33:07;;;;;;;17.30;5.37;;;21.10;51.50;;;;;;5068549;28;20527;-77
2024/02/01 10:35:35;;;;;;;12.03;4.60;;;21.30;51.50;;;;;;5067374;28;20465;-76
2024/02/01 10:38:12;;;;;;;18.83;5.73;;;21.40;51.50;;;;;;5066866;28;20507;-75
2024/02/01 10:40:53;;;;;;;20.03;5.80;;;21.50;51.40;;;;;;5066087;28;20483;-77
2024/02/01 10:43:23;;;;;;;23.00;6.87;;;21.70;51.40;;;;;;5060392;28;20521;-75
2024/02/01 10:46:04;;;;;;;16.90;6.60;;;21.80;51.30;;;;;;5065238;28;20488;-77
2024/02/01 10:48:34;;;;;;;26.13;6.70;;;21.90;51.10;;;;;;5068588;28;20445;-77
2024/02/01 10:51:09;;;;;;;19.83;6.83;;;22.00;51.10;;;;;;5064573;28;20551;-77
2024/02/01 10:53:43;;;;;;;20.80;7.00;;;22.10;50.90;;;;;;5068437;28;20480;-78
2024/02/01 10:56:14;;;;;;;20.33;7.67;;;22.20;51.00;;;;;;5067702;28;20572;-78
2024/02/01 10:58:44;;;;;;;16.33;7.30;;;22.30;51.00;;;;;;5065925;28;20401;-77
2024/02/01 11:01:12;;;;;;;19.87;7.63;;;22.40;50.90;;;;;;5069008;28;20511;-77
2024/02/01 11:03:47;;;;;;;23.57;8.33;;;22.40;50.80;;;;;;5067180;28;20461;-76
2024/02/01 11:06:15;;;;;;;19.03;7.00;;;22.50;51.00;;;;;;5068163;28;20446;-76
2024/02/01 11:08:45;;;;;;;19.33;7.50;;;22.50;50.70;;;;;;5063990;28;20438;-77
2024/02/01 11:11:20;;;;;;;21.43;8.37;;;22.40;50.50;;;;;;5068772;28;20450;-77
2024/02/01 11:13:49;;;;;;;15.27;7.40;;;22.40;50.70;;;;;;5066887;28;20427;-77
2024/02/01 11:16:18;;;;;;;22.97;7.63;;;22.30;50.50;;;;;;5068160;28;20461;-77
2024/02/01 11:18:50;;;;;;;25.33;8.50;;;22.30;50.80;;;;;;5067327;28;20449;-77
2024/02/01 11:21:25;;;;;;;20.83;6.73;;;22.20;50.60;;;;;;5065556;28;20477;-77
2024/02/01 11:23:54;;;;;;;18.60;7.70;;;22.20;51.00;;;;;;5065646;28;20522;-78
2024/02/01 11:26:22;;;;;;;22.17;7.20;;;22.30;51.10;;;;;;5065956;28;20413;-77
2024/02/01 11:28:49;;;;;;;17.03;7.67;;;22.40;51.20;;;;;;5067372;28;20960;-77
2024/02/01 11:31:17;;;;;;;25.07;8.33;;;22.70;51.40;;;;;;5067912;28;20454;-77
2024/02/01 11:34:05;;;;;;;18.13;7.00;;;23.00;51.40;;;;;;5066439;28;20567;-77
2024/02/01 11:36:34;;;;;;;20.43;8.03;;;23.30;50.80;;;;;;5063247;28;20428;-77
2024/02/01 11:39:03;;;;;;;21.73;7.73;;;23.50;50.80;;;;;;5062628;28;20412;-77
2024/02/01 11:41:32;;;;;;;20.97;7.17;;;23.50;50.10;;;;;;5067417;28;20441;-76
2024/02/01 11:44:01;;;;;;;22.30;7.43;;;23.60;50.50;;;;;;5067313;28;20465;-77
2024/02/01 11:46:30;;;;;;;18.63;7.97;;;23.80;50.30;;;;;;5070807;28;20436;-77
2024/02/01 11:48:58;;;;;;;21.13;7.47;;;23.90;49.80;;;;;;5066640;28;20429;-76
2024/02/01 11:51:26;;;;;;;19.63;6.73;;;23.90;49.70;;;;;;5070732;28;20471;-77
2024/02/01 11:53:54;;;;;;;17.77;6.70;;;23.90;49.30;;;;;;5062798;28;20455;-76
2024/02/01 11:56:23;;;;;;;17.90;6.77;;;23.90;49.70;;;;;;5067478;28;20481;-76
2024/02/01 11:58:51;;;;;;;19.23;6.87;;;23.80;49.50;;;;;;5068553;28;20524;-76
2024/02/01 12:01:19;;;;;;;24.63;6.87;;;23.80;49.80;;;;;;5070345;28;20498;-76
2024/02/01 12:03:48;;;;;;;17.87;6.90;;;23.80;49.80;;;;;;5070291;28;20879;-76
2024/02/01 12:06:19;;;;;;;15.90;6.80;;;23.80;49.70;;;;;;5071078;28;20550;-76
2024/02/01 12:08:47;;;;;;;13.53;6.10;;;23.90;49.60;;;;;;5071281;28;20995;-77
2024/02/01 12:11:15;;;;;;;15.20;6.37;;;24.00;49.60;;;;;;5070537;28;20437;-75
2024/02/01 12:13:48;;;;;;;12.67;5.70;;;24.00;49.60;;;;;;5071181;28;20489;-76
2024/02/01 12:16:23;;;;;;;16.27;6.37;;;24.20;49.60;;;;;;5071838;28;20442;-77
2024/02/01 12:18:52;;;;;;;16.07;6.27;;;24.40;49.60;;;;;;5071828;28;20412;-76
2024/02/01 12:21:26;;;;;;;14.70;6.27;;;24.50;49.40;;;;;;5072089;28;20412;-75
2024/02/01 12:23:56;;;;;;;13.03;5.70;;;24.80;49.60;;;;;;5071532;28;20439;-77
2024/02/01 12:26:25;;;;;;;14.77;6.27;;;24.90;49.50;;;;;;5071431;28;20434;-76
2024/02/01 12:28:58;;;;;;;12.27;5.77;;;24.90;48.60;;;;;;5071628;28;20434;-76
2024/02/01 12:31:26;;;;;;;12.53;6.00;;;24.90;49.00;;;;;;5071917;28;20416;-76
2024/02/01 12:33:55;;;;;;;13.10;5.70;;;25.20;49.00;;;;;;5026213;28;1297488;-76
2024/02/01 12:36:23;;;;;;;10.17;4.90;;;25.30;48.60;;;;;;5072982;28;20225;-76
2024/02/01 12:38:52;;;;;;;12.40;6.00;;;25.40;48.30;;;;;;5072969;28;20467;-75
2024/02/01 12:41:21;;;;;;;13.90;5.30;;;25.30;48.00;;;;;;5074600;28;20431;-76
2024/02/01 12:43:51;;;;;;;16.23;5.80;;;25.10;47.90;;;;;;5072101;28;20432;-77
2024/02/01 12:46:23;;;;;;;13.97;4.63;;;24.80;48.10;;;;;;5072591;28;20436;-76
2024/02/01 12:48:52;;;;;;;12.70;5.00;;;24.70;48.60;;;;;;5072595;28;20425;-76
2024/02/01 12:51:26;;;;;;;12.80;5.10;;;24.60;49.10;;;;;;5073294;28;20554;-77
2024/02/01 12:53:56;;;;;;;14.23;4.93;;;24.60;48.80;;;;;;5072354;28;20435;-76
2024/02/01 12:56:25;;;;;;;15.13;5.93;;;24.50;49.30;;;;;;5071391;28;20474;-77
2024/02/01 12:58:56;;;;;;;15.30;5.60;;;24.50;48.90;;;;;;5072152;28;20408;-77
2024/02/01 13:01:27;;;;;;;15.80;5.10;;;24.40;49.10;;;;;;5074101;28;20419;-77
2024/02/01 13:03:56;;;;;;;12.40;4.57;;;24.50;49.10;;;;;;5073727;28;20463;-77
2024/02/01 13:06:23;;;;;;;9.70;4.80;;;24.70;49.70;;;;;;5072840;28;20437;-78
2024/02/01 13:08:52;;;;;;;11.57;5.10;;;24.90;49.40;;;;;;5073685;28;20457;-77
2024/02/01 13:11:25;;;;;;;14.13;5.10;;;25.10;48.70;;;;;;5072714;28;20421;-77
2024/02/01 13:13:55;;;;;;;15.80;4.53;;;25.00;48.80;;;;;;5071524;28;20429;-78
2024/02/01 13:16:23;;;;;;;11.70;5.07;;;25.00;49.00;;;;;;5071687;28;20443;-77
2024/02/01 13:18:53;;;;;;;12.30;4.50;;;25.20;49.00;;;;;;5071265;28;20408;-78
2024/02/01 13:21:21;;;;;;;10.10;4.30;;;25.40;48.70;;;;;;5071447;28;20466;-77
2024/02/01 13:23:49;;;;;;;12.33;4.90;;;25.60;48.40;;;;;;5070668;28;20527;-77
2024/02/01 13:26:17;;;;;;;12.60;4.57;;;25.80;48.10;;;;;;5071146;28;20431;-77
2024/02/01 13:28:46;;;;;;;10.13;4.87;;;26.00;47.80;;;;;;5071191;28;20449;-77
2024/02/01 13:31:13;;;;;;;13.30;5.30;;;26.10;47.60;;;;;;5070926;28;20408;-77
2024/02/01 13:33:41;;;;;;;15.37;4.97;;;26.30;47.40;;;;;;5091215;22;20559;-78
2024/02/01 13:36:11;;;;;;;11.80;4.60;;;26.40;47.20;;;;;;5072252;28;20448;-78